createdAt,value
2019-04-29T00:00:35.704Z,100.00
2019-04-29T00:03:05.168Z,100.00
2019-04-29T00:05:34.254Z,100.00
2019-04-29T00:08:03.502Z,100.00
2019-04-29T00:10:32.813Z,100.00
2019-04-29T00:13:01.987Z,100.00
2019-04-29T00:15:48.907Z,100.00
2019-04-29T00:18:26.170Z,100.00
2019-04-29T00:20:55.313Z,100.00
2019-04-29T00:23:24.610Z,100.00
2019-04-29T00:25:54.001Z,99.70
2019-04-29T00:28:23.425Z,99.79
2019-04-29T00:30:52.716Z,99.61
2019-04-29T00:33:21.910Z,99.74
2019-04-29T00:35:51.109Z,99.61
2019-04-29T00:38:41.678Z,99.19
2019-04-29T00:41:45.391Z,99.41
2019-04-29T00:44:16.165Z,99.08
2019-04-29T00:46:45.445Z,99.24
2019-04-29T00:49:14.743Z,99.26
2019-04-29T00:51:44.021Z,99.26
2019-04-29T00:54:31.765Z,99.43
2019-04-29T00:57:00.979Z,99.61
2019-04-29T00:59:30.173Z,99.78
2019-04-29T01:01:59.386Z,100.00
2019-04-29T01:04:28.632Z,100.00
2019-04-29T01:06:57.866Z,100.00
2019-04-29T01:09:28.646Z,100.00
2019-04-29T01:11:57.731Z,99.60
2019-04-29T01:14:26.962Z,99.40
2019-04-29T01:16:56.051Z,99.40
2019-04-29T01:19:25.116Z,99.46
2019-04-29T01:21:54.166Z,99.49
2019-04-29T01:24:23.338Z,99.49
2019-04-29T01:27:17.345Z,99.72
2019-04-29T01:29:46.429Z,100.00
2019-04-29T01:32:15.520Z,100.00
2019-04-29T01:35:02.761Z,100.00
2019-04-29T01:37:42.605Z,100.00
2019-04-29T01:40:31.323Z,100.00
2019-04-29T01:43:00.408Z,100.00
2019-04-29T01:45:29.453Z,100.00
2019-04-29T01:47:58.621Z,100.00
2019-04-29T01:50:27.750Z,100.00
2019-04-29T01:52:56.944Z,100.00
2019-04-29T01:55:26.090Z,100.00
2019-04-29T01:57:55.333Z,100.00
2019-04-29T02:00:24.558Z,100.00
2019-04-29T02:02:54.121Z,100.00
2019-04-29T02:05:23.249Z,100.00
2019-04-29T02:07:52.329Z,100.00
2019-04-29T02:10:30.433Z,100.00
2019-04-29T02:13:01.553Z,100.00
2019-04-29T02:15:30.631Z,100.00
2019-04-29T02:17:59.802Z,100.00
2019-04-29T02:20:29.069Z,100.00
2019-04-29T02:23:18.954Z,100.00
2019-04-29T02:25:48.429Z,100.00
2019-04-29T02:28:17.655Z,100.00
2019-04-29T02:30:48.667Z,100.00
2019-04-29T02:33:17.954Z,100.00
2019-04-29T02:35:47.089Z,100.00
2019-04-29T02:38:27.175Z,100.00
2019-04-29T02:41:24.309Z,100.00
2019-04-29T02:43:55.356Z,100.00
2019-04-29T02:46:24.637Z,100.00
2019-04-29T02:48:53.954Z,100.00
2019-04-29T02:51:40.631Z,100.00
2019-04-29T02:54:10.129Z,100.00
2019-04-29T02:56:40.518Z,100.00
2019-04-29T02:59:10.156Z,100.00
2019-04-29T03:01:49.700Z,100.00
2019-04-29T03:04:21.472Z,100.00
2019-04-29T03:06:50.712Z,100.00
2019-04-29T03:09:19.930Z,100.00
2019-04-29T03:11:49.195Z,100.00
2019-04-29T03:14:18.367Z,100.00
2019-04-29T03:16:47.538Z,100.00
2019-04-29T03:19:21.996Z,100.00
2019-04-29T03:21:56.676Z,100.00
2019-04-29T03:24:26.060Z,100.00
2019-04-29T03:26:55.409Z,100.00
2019-04-29T03:29:24.496Z,100.00
2019-04-29T03:31:55.774Z,100.00
2019-04-29T03:34:25.203Z,100.00
2019-04-29T03:36:54.459Z,100.00
2019-04-29T03:39:23.667Z,100.00
2019-04-29T03:41:52.712Z,100.00
2019-04-29T03:44:21.790Z,100.00
2019-04-29T03:46:50.840Z,100.00
2019-04-29T03:49:20.315Z,100.00
2019-04-29T03:51:49.378Z,100.00
2019-04-29T03:54:18.559Z,100.00
2019-04-29T03:56:47.960Z,100.00
2019-04-29T03:59:17.047Z,100.00
2019-04-29T04:02:04.708Z,100.00
2019-04-29T04:04:51.506Z,100.00
2019-04-29T04:07:39.657Z,100.00
2019-04-29T04:10:09.053Z,100.00
2019-04-29T04:12:38.321Z,100.00
2019-04-29T04:15:07.865Z,100.00
2019-04-29T04:17:42.684Z,100.00
2019-04-29T04:20:11.990Z,100.00
2019-04-29T04:22:47.819Z,100.00
2019-04-29T04:25:17.703Z,100.00
2019-04-29T04:27:47.692Z,100.00
2019-04-29T04:30:17.272Z,100.00
2019-04-29T04:32:46.347Z,100.00
2019-04-29T04:35:15.445Z,100.00
2019-04-29T04:37:44.604Z,100.00
2019-04-29T04:40:16.502Z,100.00
2019-04-29T04:42:45.925Z,100.00
2019-04-29T04:45:15.232Z,100.00
2019-04-29T04:47:44.465Z,100.00
2019-04-29T04:50:13.541Z,100.00
2019-04-29T04:52:42.823Z,100.00
2019-04-29T04:55:12.474Z,100.00
2019-04-29T04:57:41.627Z,100.00
2019-04-29T05:00:19.832Z,100.00
2019-04-29T05:02:47.569Z,100.00
2019-04-29T05:05:16.670Z,100.00
2019-04-29T05:07:46.002Z,100.00
2019-04-29T05:10:15.366Z,100.00
2019-04-29T05:12:44.463Z,100.00
2019-04-29T05:15:13.833Z,100.00
2019-04-29T05:17:43.075Z,100.00
2019-04-29T05:20:12.401Z,100.00
2019-04-29T05:22:45.125Z,100.00
2019-04-29T05:25:14.460Z,99.44
2019-04-29T05:27:43.659Z,99.42
2019-04-29T05:30:12.747Z,98.69
2019-04-29T05:32:42.086Z,97.50
2019-04-29T05:35:13.944Z,98.05
2019-04-29T05:38:05.003Z,98.05
2019-04-29T05:40:38.985Z,97.85
2019-04-29T05:43:10.123Z,97.85
2019-04-29T05:45:58.276Z,97.18
2019-04-29T05:48:31.615Z,96.58
2019-04-29T05:51:07.741Z,96.15
2019-04-29T05:53:41.157Z,97.36
2019-04-29T05:56:10.447Z,96.22
2019-04-29T05:58:39.723Z,96.22
2019-04-29T06:01:13.773Z,96.04
2019-04-29T06:03:44.402Z,96.03
2019-04-29T06:06:14.467Z,95.53
2019-04-29T06:08:43.666Z,95.94
2019-04-29T06:11:12.768Z,96.12
2019-04-29T06:13:41.929Z,96.09
2019-04-29T06:16:11.016Z,96.03
2019-04-29T06:18:40.997Z,95.84
2019-04-29T06:21:11.280Z,95.85
2019-04-29T06:23:40.682Z,95.83
2019-04-29T06:26:09.972Z,95.73
2019-04-29T06:28:39.206Z,95.78
2019-04-29T06:31:08.450Z,97.15
2019-04-29T06:33:37.674Z,96.62
2019-04-29T06:36:06.976Z,96.44
2019-04-29T06:38:36.275Z,95.71
2019-04-29T06:41:09.311Z,94.27
2019-04-29T06:43:36.460Z,93.64
2019-04-29T06:46:05.527Z,93.46
2019-04-29T06:48:34.829Z,93.09
2019-04-29T06:51:04.068Z,92.55
2019-04-29T06:53:33.303Z,92.15
2019-04-29T06:56:02.655Z,91.71
2019-04-29T06:58:32.437Z,91.69
2019-04-29T07:01:03.412Z,91.54
2019-04-29T07:03:32.426Z,89.99
2019-04-29T07:06:01.505Z,89.74
2019-04-29T07:08:30.735Z,90.53
2019-04-29T07:11:01.240Z,89.77
2019-04-29T07:13:31.026Z,89.53
2019-04-29T07:16:00.209Z,89.65
2019-04-29T07:18:29.441Z,88.96
2019-04-29T07:20:58.612Z,89.17
2019-04-29T07:23:27.758Z,88.39
2019-04-29T07:25:57.138Z,87.83
2019-04-29T07:28:26.250Z,88.33
2019-04-29T07:31:03.307Z,87.32
2019-04-29T07:33:26.472Z,86.60
2019-04-29T07:35:55.872Z,86.74
2019-04-29T07:38:25.152Z,86.97
2019-04-29T07:40:54.583Z,87.35
2019-04-29T07:43:23.642Z,86.78
2019-04-29T07:46:07.738Z,85.74
2019-04-29T07:48:41.728Z,85.80
2019-04-29T07:51:07.746Z,84.40
2019-04-29T07:53:44.782Z,84.20
2019-04-29T07:56:08.311Z,84.30
2019-04-29T07:58:37.430Z,83.98
2019-04-29T08:01:07.016Z,83.93
2019-04-29T08:03:36.165Z,83.31
2019-04-29T08:06:05.441Z,83.24
2019-04-29T08:08:35.263Z,82.98
2019-04-29T08:11:04.383Z,83.09
2019-04-29T08:13:33.926Z,83.70
2019-04-29T08:16:03.040Z,83.16
2019-04-29T08:18:32.223Z,82.58
2019-04-29T08:21:01.382Z,82.35
2019-04-29T08:23:33.077Z,80.28
2019-04-29T08:26:02.615Z,80.21
2019-04-29T08:28:32.842Z,81.30
2019-04-29T08:31:02.224Z,80.63
2019-04-29T08:33:31.346Z,80.02
2019-04-29T08:36:00.699Z,79.59
2019-04-29T08:38:29.854Z,78.19
2019-04-29T08:40:59.008Z,77.46
2019-04-29T08:44:15.747Z,77.38
2019-04-29T08:46:44.457Z,77.09
2019-04-29T08:49:14.769Z,76.88
2019-04-29T08:51:43.862Z,75.08
2019-04-29T08:54:16.030Z,74.85
2019-04-29T08:57:01.882Z,73.86
2019-04-29T08:59:15.337Z,73.80
2019-04-29T09:01:44.576Z,73.19
2019-04-29T09:04:13.717Z,73.43
2019-04-29T09:06:43.005Z,71.64
2019-04-29T09:09:27.893Z,73.25
2019-04-29T09:11:47.419Z,72.56
2019-04-29T09:14:14.632Z,70.50
2019-04-29T09:16:43.718Z,71.07
2019-04-29T09:19:13.138Z,71.90
2019-04-29T09:21:45.014Z,70.65
2019-04-29T09:24:14.253Z,69.55
2019-04-29T09:26:48.396Z,69.27
2019-04-29T09:29:33.879Z,67.88
2019-04-29T09:32:04.511Z,66.71
2019-04-29T09:34:33.657Z,67.77
2019-04-29T09:37:02.815Z,65.78
2019-04-29T09:39:42.884Z,66.41
2019-04-29T09:42:26.711Z,66.98
2019-04-29T09:45:08.460Z,66.75
2019-04-29T09:47:37.881Z,67.49
2019-04-29T09:50:08.083Z,65.84
2019-04-29T09:52:37.210Z,66.75
2019-04-29T09:55:06.670Z,65.38
2019-04-29T09:57:35.754Z,65.15
2019-04-29T10:00:14.353Z,65.27
2019-04-29T10:03:05.559Z,67.09
2019-04-29T10:05:40.785Z,66.20
2019-04-29T10:08:09.859Z,66.84
2019-04-29T10:10:39.029Z,64.96
2019-04-29T10:13:08.214Z,64.54
2019-04-29T10:15:50.703Z,64.09
2019-04-29T10:18:41.867Z,64.63
2019-04-29T10:21:16.414Z,65.22
2019-04-29T10:23:44.090Z,64.48
2019-04-29T10:26:13.397Z,63.87
2019-04-29T10:29:01.432Z,63.09
2019-04-29T10:31:30.532Z,63.83
2019-04-29T10:33:59.588Z,62.86
2019-04-29T10:36:28.683Z,62.84
2019-04-29T10:39:01.495Z,63.40
2019-04-29T10:41:41.814Z,63.98
2019-04-29T10:44:37.253Z,61.24
2019-04-29T10:47:13.959Z,59.82
2019-04-29T10:49:49.565Z,61.36
2019-04-29T10:52:17.731Z,60.96
2019-04-29T10:54:51.581Z,63.14
2019-04-29T10:57:19.416Z,60.03
2019-04-29T10:59:51.638Z,58.67
2019-04-29T11:02:49.386Z,58.92
2019-04-29T11:05:37.830Z,59.14
2019-04-29T11:08:29.318Z,60.33
2019-04-29T11:11:02.368Z,60.31
2019-04-29T11:13:30.355Z,62.63
2019-04-29T11:15:59.625Z,59.73
2019-04-29T11:18:28.891Z,61.55
2019-04-29T11:20:58.031Z,59.63
2019-04-29T11:23:33.115Z,59.40
2019-04-29T11:26:20.014Z,59.46
2019-04-29T11:28:51.264Z,60.08
2019-04-29T11:31:21.211Z,58.95
2019-04-29T11:34:11.679Z,56.84
2019-04-29T11:36:44.083Z,58.19
2019-04-29T11:39:13.915Z,56.01
2019-04-29T11:41:42.633Z,54.21
2019-04-29T11:44:11.747Z,52.23
2019-04-29T11:46:44.643Z,53.09
2019-04-29T11:49:13.785Z,53.74
2019-04-29T11:52:07.799Z,53.51
2019-04-29T11:54:18.102Z,53.92
2019-04-29T11:56:47.638Z,54.67
2019-04-29T11:59:35.751Z,51.06
2019-04-29T12:02:24.287Z,52.50
2019-04-29T12:04:58.041Z,54.45
2019-04-29T12:07:32.795Z,54.00
2019-04-29T12:10:02.281Z,56.05
2019-04-29T12:12:31.251Z,56.24
2019-04-29T12:15:16.682Z,55.66
2019-04-29T12:18:04.716Z,55.72
2019-04-29T12:20:52.771Z,56.16
2019-04-29T12:23:22.193Z,53.94
2019-04-29T12:25:51.428Z,54.23
2019-04-29T12:28:21.042Z,54.79
2019-04-29T12:30:51.978Z,56.14
2019-04-29T12:33:26.697Z,55.09
2019-04-29T12:36:03.332Z,54.61
2019-04-29T12:38:51.484Z,53.47
2019-04-29T12:41:51.638Z,52.69
2019-04-29T12:44:35.334Z,51.59
2019-04-29T12:47:08.883Z,53.01
2019-04-29T12:49:38.377Z,51.40
2019-04-29T12:52:07.567Z,51.26
2019-04-29T12:54:36.867Z,51.70
2019-04-29T12:57:05.961Z,51.48
2019-04-29T12:59:37.231Z,51.79
2019-04-29T13:02:28.629Z,53.28
2019-04-29T13:05:28.402Z,52.92
2019-04-29T13:08:07.208Z,49.25
2019-04-29T13:10:50.312Z,49.57
2019-04-29T13:13:20.134Z,49.62
2019-04-29T13:16:08.282Z,47.79
2019-04-29T13:19:10.700Z,47.63
2019-04-29T13:21:30.923Z,48.23
2019-04-29T13:24:13.744Z,45.92
2019-04-29T13:26:33.254Z,46.17
2019-04-29T13:29:02.514Z,45.63
2019-04-29T13:31:38.564Z,45.79
2019-04-29T13:34:22.470Z,45.82
2019-04-29T13:36:35.788Z,45.20
2019-04-29T13:39:08.541Z,45.49
2019-04-29T13:41:55.643Z,45.08
2019-04-29T13:44:08.638Z,45.58
2019-04-29T13:46:51.206Z,46.30
2019-04-29T13:49:29.553Z,45.46
2019-04-29T13:51:59.255Z,47.84
2019-04-29T13:54:28.384Z,47.58
2019-04-29T13:57:07.746Z,47.80
2019-04-29T13:59:35.943Z,49.76
2019-04-29T14:02:16.679Z,48.21
2019-04-29T14:04:56.029Z,48.26
2019-04-29T14:07:25.255Z,48.92
2019-04-29T14:09:54.483Z,50.83
2019-04-29T14:14:58.606Z,49.91
2019-04-29T14:17:27.133Z,49.46
2019-04-29T14:18:53.505Z,49.56
2019-04-29T14:19:57.208Z,50.75
2019-04-29T14:22:26.523Z,50.65
2019-04-29T14:24:55.637Z,50.07
2019-04-29T14:27:25.624Z,48.38
2019-04-29T14:29:54.953Z,48.99
2019-04-29T14:32:34.602Z,49.68
2019-04-29T14:35:07.113Z,49.13
2019-04-29T14:37:36.264Z,49.70
2019-04-29T14:40:07.605Z,47.54
2019-04-29T14:43:02.965Z,46.96
2019-04-29T14:45:57.898Z,46.18
2019-04-29T14:48:42.653Z,46.39
2019-04-29T14:51:09.561Z,44.88
2019-04-29T14:53:38.876Z,44.51
2019-04-29T14:56:08.107Z,43.89
2019-04-29T14:58:37.621Z,44.52
2019-04-29T15:01:23.548Z,45.41
2019-04-29T15:03:55.331Z,44.73
2019-04-29T15:06:28.375Z,44.88
2019-04-29T15:08:55.893Z,42.88
2019-04-29T15:11:31.849Z,43.05
2019-04-29T15:14:05.007Z,42.73
2019-04-29T15:16:39.799Z,41.39
2019-04-29T15:19:27.303Z,42.69
2019-04-29T15:22:02.884Z,43.75
2019-04-29T15:24:32.704Z,43.54
2019-04-29T15:27:03.088Z,44.23
2019-04-29T15:29:33.581Z,45.34
2019-04-29T15:32:03.100Z,45.19
2019-04-29T15:34:32.269Z,45.23
2019-04-29T15:37:01.359Z,44.82
2019-04-29T15:39:30.769Z,44.04
2019-04-29T15:42:01.941Z,43.78
2019-04-29T15:44:30.894Z,44.26
2019-04-29T15:46:59.991Z,43.80
2019-04-29T15:49:29.229Z,45.63
2019-04-29T15:51:58.616Z,46.35
2019-04-29T15:54:27.713Z,45.45
2019-04-29T15:56:56.873Z,46.25
2019-04-29T15:59:26.759Z,46.56
2019-04-29T16:01:59.019Z,46.25
2019-04-29T16:04:33.652Z,47.42
2019-04-29T16:07:28.009Z,47.60
2019-04-29T16:10:09.422Z,46.29
2019-04-29T16:12:45.431Z,46.05
2019-04-29T16:15:15.102Z,46.85
2019-04-29T16:17:44.183Z,46.48
2019-04-29T16:20:13.355Z,47.02
2019-04-29T16:22:42.713Z,47.74
2019-04-29T16:25:12.961Z,48.75
2019-04-29T16:27:51.537Z,48.42
2019-04-29T16:30:18.613Z,49.17
2019-04-29T16:32:44.506Z,50.31
2019-04-29T16:35:17.854Z,50.96
2019-04-29T16:37:44.867Z,52.64
2019-04-29T16:40:14.233Z,55.78
2019-04-29T16:42:58.939Z,54.78
2019-04-29T16:45:51.519Z,54.42
2019-04-29T16:48:18.323Z,55.99
2019-04-29T16:50:47.534Z,57.90
2019-04-29T16:53:17.404Z,59.34
2019-04-29T16:55:47.400Z,57.77
2019-04-29T16:58:18.427Z,59.28
2019-04-29T17:00:52.772Z,59.93
2019-04-29T17:03:19.213Z,60.38
2019-04-29T17:05:48.415Z,61.90
2019-04-29T17:08:19.267Z,62.89
2019-04-29T17:11:04.001Z,64.15
2019-04-29T17:13:34.221Z,64.46
2019-04-29T17:16:05.224Z,65.33
2019-04-29T17:18:34.804Z,66.42
2019-04-29T17:21:07.232Z,67.70
2019-04-29T17:23:35.268Z,68.62
2019-04-29T17:26:04.553Z,67.86
2019-04-29T17:28:49.367Z,69.93
2019-04-29T17:31:36.655Z,69.98
2019-04-29T17:34:54.468Z,72.09
2019-04-29T17:36:50.069Z,72.49
2019-04-29T17:39:20.174Z,73.26
2019-04-29T17:41:49.769Z,74.78
2019-04-29T17:44:35.756Z,75.56
2019-04-29T17:47:11.660Z,76.46
2019-04-29T17:50:02.043Z,76.63
2019-04-29T17:52:31.516Z,77.15
2019-04-29T17:55:12.755Z,78.53
2019-04-29T17:57:54.489Z,79.09
2019-04-29T18:00:58.260Z,81.68
2019-04-29T18:03:41.530Z,81.86
2019-04-29T18:06:26.263Z,82.27
2019-04-29T18:09:20.799Z,83.49
2019-04-29T18:11:53.522Z,84.13
2019-04-29T18:14:21.457Z,84.44
2019-04-29T18:16:51.347Z,86.03
2019-04-29T18:19:34.516Z,86.67
2019-04-29T18:22:34.917Z,87.84
2019-04-29T18:25:30.709Z,87.56
2019-04-29T18:28:00.029Z,87.88
2019-04-29T18:30:35.712Z,89.34
2019-04-29T18:33:00.526Z,90.05
2019-04-29T18:35:30.354Z,90.02
2019-04-29T18:38:00.701Z,90.76
2019-04-29T18:40:35.375Z,91.08
2019-04-29T18:43:01.536Z,91.43
2019-04-29T18:45:34.520Z,92.15
2019-04-29T18:48:04.133Z,92.94
2019-04-29T18:50:38.955Z,93.68
2019-04-29T18:53:08.401Z,94.42
2019-04-29T18:55:37.669Z,94.48
2019-04-29T18:58:07.053Z,94.71
2019-04-29T19:00:36.495Z,95.69
2019-04-29T19:03:06.596Z,95.95
2019-04-29T19:05:45.382Z,95.99
2019-04-29T19:08:19.137Z,97.00
2019-04-29T19:10:49.912Z,97.07
2019-04-29T19:13:18.296Z,97.68
2019-04-29T19:15:50.172Z,98.00
2019-04-29T19:18:21.277Z,98.39
2019-04-29T19:20:52.681Z,98.56
2019-04-29T19:23:24.980Z,98.43
2019-04-29T19:25:54.329Z,98.74
2019-04-29T19:28:30.078Z,99.12
2019-04-29T19:30:56.044Z,99.48
2019-04-29T19:33:30.790Z,99.77
2019-04-29T19:35:58.483Z,99.55
2019-04-29T19:38:31.285Z,99.54
2019-04-29T19:41:01.031Z,99.18
2019-04-29T19:43:30.720Z,99.26
2019-04-29T19:46:00.735Z,99.43
2019-04-29T19:48:30.057Z,99.82
2019-04-29T19:51:14.502Z,100.00
2019-04-29T19:53:37.720Z,100.00
2019-04-29T19:56:04.927Z,100.00
2019-04-29T19:58:35.524Z,100.00
2019-04-29T20:01:13.838Z,100.00
2019-04-29T20:03:42.169Z,100.00
2019-04-29T20:06:21.441Z,100.00
2019-04-29T20:08:53.865Z,100.00
2019-04-29T20:11:17.402Z,100.00
2019-04-29T20:14:01.307Z,100.00
2019-04-29T20:16:44.800Z,100.00
2019-04-29T20:19:27.334Z,100.00
2019-04-29T20:21:59.937Z,100.00
2019-04-29T20:24:26.628Z,100.00
2019-04-29T20:26:56.014Z,100.00
2019-04-29T20:29:27.261Z,100.00
2019-04-29T20:31:58.718Z,100.00
2019-04-29T20:34:28.641Z,100.00
2019-04-29T20:36:58.247Z,100.00
2019-04-29T20:39:27.702Z,100.00
2019-04-29T20:42:01.129Z,100.00
2019-04-29T20:44:28.448Z,100.00
2019-04-29T20:47:16.686Z,100.00
2019-04-29T20:49:30.850Z,100.00
2019-04-29T20:52:07.987Z,100.00
2019-04-29T20:54:38.496Z,100.00
2019-04-29T20:57:17.560Z,100.00
2019-04-29T20:59:42.114Z,100.00
2019-04-29T21:02:12.771Z,100.00
2019-04-29T21:04:46.448Z,100.00
2019-04-29T21:07:18.508Z,100.00
2019-04-29T21:09:43.477Z,100.00
2019-04-29T21:12:20.806Z,100.00
2019-04-29T21:14:53.235Z,100.00
2019-04-29T21:17:29.386Z,100.00
2019-04-29T21:19:53.703Z,100.00
2019-04-29T21:22:24.161Z,100.00
2019-04-29T21:24:55.091Z,100.00
2019-04-29T21:27:26.038Z,100.00
2019-04-29T21:29:55.535Z,100.00
2019-04-29T21:32:25.802Z,100.00
2019-04-29T21:35:10.293Z,100.00
2019-04-29T21:37:53.957Z,100.00
2019-04-29T21:40:36.704Z,100.00
2019-04-29T21:43:13.476Z,100.00
2019-04-29T21:45:45.023Z,100.00
2019-04-29T21:48:12.189Z,100.00
2019-04-29T21:50:41.697Z,100.00
2019-04-29T21:53:10.818Z,100.00
2019-04-29T21:55:40.032Z,100.00
2019-04-29T21:58:10.909Z,100.00
2019-04-29T22:00:40.643Z,100.00
2019-04-29T22:03:09.712Z,100.00
2019-04-29T22:05:38.869Z,100.00
2019-04-29T22:08:08.329Z,100.00
2019-04-29T22:10:37.511Z,100.00
2019-04-29T22:13:07.126Z,100.00
2019-04-29T22:15:39.096Z,100.00
2019-04-29T22:18:14.008Z,100.00
2019-04-29T22:20:42.340Z,100.00
2019-04-29T22:23:13.174Z,100.00
2019-04-29T22:25:41.161Z,100.00
2019-04-29T22:28:15.865Z,100.00
2019-04-29T22:30:45.300Z,100.00
2019-04-29T22:33:15.307Z,100.00
2019-04-29T22:35:45.268Z,100.00
2019-04-29T22:38:16.697Z,100.00
2019-04-29T22:40:45.732Z,100.00
2019-04-29T22:43:27.131Z,100.00
2019-04-29T22:45:56.554Z,100.00
2019-04-29T22:48:25.730Z,100.00
2019-04-29T22:50:55.617Z,100.00
2019-04-29T22:53:25.207Z,100.00
2019-04-29T22:55:56.403Z,100.00
2019-04-29T22:58:25.378Z,100.00
2019-04-29T23:00:54.706Z,100.00
2019-04-29T23:03:23.841Z,100.00
2019-04-29T23:05:53.178Z,100.00
2019-04-29T23:08:22.286Z,100.00
2019-04-29T23:10:51.444Z,100.00
2019-04-29T23:13:21.262Z,100.00
2019-04-29T23:15:53.800Z,100.00
2019-04-29T23:18:26.768Z,100.00
2019-04-29T23:21:20.405Z,100.00
2019-04-29T23:23:55.160Z,100.00
2019-04-29T23:26:24.975Z,100.00
2019-04-29T23:28:55.431Z,100.00
2019-04-29T23:31:27.075Z,100.00
2019-04-29T23:33:56.726Z,100.00
2019-04-29T23:36:26.046Z,100.00
2019-04-29T23:38:56.638Z,100.00
2019-04-29T23:41:32.786Z,100.00
2019-04-29T23:43:59.957Z,100.00
2019-04-29T23:46:29.762Z,100.00
2019-04-29T23:49:03.100Z,100.00
2019-04-29T23:51:34.258Z,100.00
2019-04-29T23:54:07.200Z,100.00
2019-04-29T23:56:38.466Z,100.00
2019-04-29T23:59:18.199Z,100.00
